sensor_id;sensor_type;location;lat;lon;timestamp;P1;durP1;ratioP1;P2;durP2;ratioP2
60935;SDS011;46804;51.786;19.520;2022-07-01T00:00:14;10.52;;;5.88;;
60935;SDS011;46804;51.786;19.520;2022-07-01T00:04:34;10.25;;;6.47;;
60935;SDS011;46804;51.786;19.520;2022-07-01T00:08:35;11.57;;;6.13;;
60935;SDS011;46804;51.786;19.520;2022-07-01T00:12:35;12.02;;;6.53;;
60935;SDS011;46804;51.786;19.520;2022-07-01T00:16:36;11.65;;;7.90;;
60935;SDS011;46804;51.786;19.520;2022-07-01T00:20:37;11.85;;;8.07;;
60935;SDS011;46804;51.786;19.520;2022-07-01T00:24:37;15.30;;;8.07;;
60935;SDS011;46804;51.786;19.520;2022-07-01T00:28:38;12.68;;;7.72;;
60935;SDS011;46804;51.786;19.520;2022-07-01T00:32:39;12.77;;;7.70;;
60935;SDS011;46804;51.786;19.520;2022-07-01T00:36:39;10.75;;;7.40;;
60935;SDS011;46804;51.786;19.520;2022-07-01T00:40:40;10.43;;;7.93;;
60935;SDS011;46804;51.786;19.520;2022-07-01T00:44:40;11.88;;;7.38;;
60935;SDS011;46804;51.786;19.520;2022-07-01T00:48:41;15.02;;;7.25;;
60935;SDS011;46804;51.786;19.520;2022-07-01T00:52:42;10.25;;;7.20;;
60935;SDS011;46804;51.786;19.520;2022-07-01T00:56:44;9.37;;;7.50;;
60935;SDS011;46804;51.786;19.520;2022-07-01T01:00:45;11.65;;;7.88;;
60935;SDS011;46804;51.786;19.520;2022-07-01T01:04:46;13.93;;;8.10;;
60935;SDS011;46804;51.786;19.520;2022-07-01T01:08:47;17.23;;;7.72;;
60935;SDS011;46804;51.786;19.520;2022-07-01T01:12:49;11.57;;;7.63;;
60935;SDS011;46804;51.786;19.520;2022-07-01T01:16:49;10.13;;;7.25;;
60935;SDS011;46804;51.786;19.520;2022-07-01T01:20:51;10.88;;;7.80;;
60935;SDS011;46804;51.786;19.520;2022-07-01T01:24:52;12.45;;;8.13;;
60935;SDS011;46804;51.786;19.520;2022-07-01T01:28:53;12.98;;;8.20;;
60935;SDS011;46804;51.786;19.520;2022-07-01T01:32:54;15.18;;;7.63;;
60935;SDS011;46804;51.786;19.520;2022-07-01T01:36:55;9.75;;;7.65;;
60935;SDS011;46804;51.786;19.520;2022-07-01T01:40:57;10.98;;;7.05;;
60935;SDS011;46804;51.786;19.520;2022-07-01T01:44:58;11.65;;;7.38;;
60935;SDS011;46804;51.786;19.520;2022-07-01T01:48:58;14.35;;;7.60;;
60935;SDS011;46804;51.786;19.520;2022-07-01T01:52:59;12.10;;;7.47;;
60935;SDS011;46804;51.786;19.520;2022-07-01T01:56:59;10.45;;;6.97;;
60935;SDS011;46804;51.786;19.520;2022-07-01T02:01:00;9.75;;;6.50;;
60935;SDS011;46804;51.786;19.520;2022-07-01T02:05:03;11.82;;;6.13;;
60935;SDS011;46804;51.786;19.520;2022-07-01T02:09:06;11.80;;;7.10;;
60935;SDS011;46804;51.786;19.520;2022-07-01T02:13:07;11.38;;;6.30;;
60935;SDS011;46804;51.786;19.520;2022-07-01T02:17:08;11.10;;;6.55;;
60935;SDS011;46804;51.786;19.520;2022-07-01T02:21:08;12.27;;;7.07;;
60935;SDS011;46804;51.786;19.520;2022-07-01T02:25:09;11.27;;;6.68;;
60935;SDS011;46804;51.786;19.520;2022-07-01T02:29:09;10.93;;;6.60;;
60935;SDS011;46804;51.786;19.520;2022-07-01T02:33:10;11.70;;;7.50;;
60935;SDS011;46804;51.786;19.520;2022-07-01T02:37:10;9.38;;;7.18;;
60935;SDS011;46804;51.786;19.520;2022-07-01T02:41:11;10.70;;;6.53;;
60935;SDS011;46804;51.786;19.520;2022-07-01T02:45:11;12.10;;;6.75;;
60935;SDS011;46804;51.786;19.520;2022-07-01T02:49:12;12.38;;;6.90;;
60935;SDS011;46804;51.786;19.520;2022-07-01T02:53:12;11.32;;;6.63;;
60935;SDS011;46804;51.786;19.520;2022-07-01T02:57:13;8.57;;;6.60;;
60935;SDS011;46804;51.786;19.520;2022-07-01T03:01:14;11.18;;;7.28;;
60935;SDS011;46804;51.786;19.520;2022-07-01T03:05:14;12.77;;;6.68;;
60935;SDS011;46804;51.786;19.520;2022-07-01T03:09:15;10.88;;;7.00;;
60935;SDS011;46804;51.786;19.520;2022-07-01T03:13:15;12.05;;;7.03;;
60935;SDS011;46804;51.786;19.520;2022-07-01T03:17:16;9.18;;;6.60;;
60935;SDS011;46804;51.786;19.520;2022-07-01T03:21:16;11.95;;;7.00;;
60935;SDS011;46804;51.786;19.520;2022-07-01T03:25:17;13.32;;;7.50;;
60935;SDS011;46804;51.786;19.520;2022-07-01T03:29:17;12.68;;;7.05;;
60935;SDS011;46804;51.786;19.520;2022-07-01T03:33:18;11.25;;;6.90;;
60935;SDS011;46804;51.786;19.520;2022-07-01T03:37:20;9.73;;;6.65;;
60935;SDS011;46804;51.786;19.520;2022-07-01T03:41:22;9.93;;;6.35;;
60935;SDS011;46804;51.786;19.520;2022-07-01T03:45:22;13.77;;;7.18;;
60935;SDS011;46804;51.786;19.520;2022-07-01T03:49:22;11.35;;;6.47;;
60935;SDS011;46804;51.786;19.520;2022-07-01T03:53:23;9.10;;;6.32;;
60935;SDS011;46804;51.786;19.520;2022-07-01T03:57:42;10.68;;;7.20;;
60935;SDS011;46804;51.786;19.520;2022-07-01T04:01:42;16.02;;;6.65;;
60935;SDS011;46804;51.786;19.520;2022-07-01T04:05:43;8.48;;;6.25;;
60935;SDS011;46804;51.786;19.520;2022-07-01T04:09:44;8.80;;;6.07;;
60935;SDS011;46804;51.786;19.520;2022-07-01T04:13:44;10.43;;;6.10;;
60935;SDS011;46804;51.786;19.520;2022-07-01T04:17:50;11.82;;;6.25;;
60935;SDS011;46804;51.786;19.520;2022-07-01T04:21:50;8.70;;;6.32;;
60935;SDS011;46804;51.786;19.520;2022-07-01T04:26:10;11.45;;;6.65;;
60935;SDS011;46804;51.786;19.520;2022-07-01T04:30:10;14.60;;;6.88;;
60935;SDS011;46804;51.786;19.520;2022-07-01T04:34:12;10.52;;;5.82;;
60935;SDS011;46804;51.786;19.520;2022-07-01T04:38:12;9.30;;;6.18;;
60935;SDS011;46804;51.786;19.520;2022-07-01T04:42:13;9.00;;;6.35;;
60935;SDS011;46804;51.786;19.520;2022-07-01T04:46:15;13.48;;;6.55;;
60935;SDS011;46804;51.786;19.520;2022-07-01T04:50:15;10.15;;;6.95;;
60935;SDS011;46804;51.786;19.520;2022-07-01T04:54:16;12.00;;;6.75;;
60935;SDS011;46804;51.786;19.520;2022-07-01T04:58:17;10.85;;;6.55;;
60935;SDS011;46804;51.786;19.520;2022-07-01T05:02:17;13.43;;;6.70;;
60935;SDS011;46804;51.786;19.520;2022-07-01T05:06:18;12.38;;;7.45;;
60935;SDS011;46804;51.786;19.520;2022-07-01T05:10:18;11.15;;;7.07;;
60935;SDS011;46804;51.786;19.520;2022-07-01T05:14:19;18.10;;;7.25;;
60935;SDS011;46804;51.786;19.520;2022-07-01T05:18:20;11.98;;;7.72;;
60935;SDS011;46804;51.786;19.520;2022-07-01T05:22:39;20.13;;;7.43;;
60935;SDS011;46804;51.786;19.520;2022-07-01T05:26:39;12.93;;;7.65;;
60935;SDS011;46804;51.786;19.520;2022-07-01T05:30:40;14.10;;;7.88;;
60935;SDS011;46804;51.786;19.520;2022-07-01T05:34:40;15.65;;;9.25;;
60935;SDS011;46804;51.786;19.520;2022-07-01T05:38:42;12.80;;;8.65;;
60935;SDS011;46804;51.786;19.520;2022-07-01T05:42:43;18.10;;;8.95;;
60935;SDS011;46804;51.786;19.520;2022-07-01T05:46:44;17.67;;;8.68;;
60935;SDS011;46804;51.786;19.520;2022-07-01T05:50:44;13.80;;;8.65;;
60935;SDS011;46804;51.786;19.520;2022-07-01T05:54:45;15.73;;;8.65;;
60935;SDS011;46804;51.786;19.520;2022-07-01T05:58:45;18.08;;;8.68;;
60935;SDS011;46804;51.786;19.520;2022-07-01T06:02:46;12.70;;;8.45;;
60935;SDS011;46804;51.786;19.520;2022-07-01T06:06:46;14.60;;;8.77;;
60935;SDS011;46804;51.786;19.520;2022-07-01T06:10:47;12.02;;;9.27;;
60935;SDS011;46804;51.786;19.520;2022-07-01T06:14:47;12.73;;;8.35;;
60935;SDS011;46804;51.786;19.520;2022-07-01T06:18:48;11.45;;;8.00;;
60935;SDS011;46804;51.786;19.520;2022-07-01T06:22:48;10.07;;;8.65;;
60935;SDS011;46804;51.786;19.520;2022-07-01T06:26:49;11.85;;;8.30;;
60935;SDS011;46804;51.786;19.520;2022-07-01T06:30:49;18.77;;;8.60;;
60935;SDS011;46804;51.786;19.520;2022-07-01T06:34:50;13.35;;;8.23;;
60935;SDS011;46804;51.786;19.520;2022-07-01T06:38:52;11.68;;;8.30;;
60935;SDS011;46804;51.786;19.520;2022-07-01T06:42:53;12.05;;;8.60;;
60935;SDS011;46804;51.786;19.520;2022-07-01T06:46:55;10.65;;;8.27;;
60935;SDS011;46804;51.786;19.520;2022-07-01T06:50:56;16.73;;;8.48;;
60935;SDS011;46804;51.786;19.520;2022-07-01T06:54:57;12.15;;;8.30;;
60935;SDS011;46804;51.786;19.520;2022-07-01T06:58:57;13.80;;;8.18;;
60935;SDS011;46804;51.786;19.520;2022-07-01T07:02:58;9.50;;;8.10;;
60935;SDS011;46804;51.786;19.520;2022-07-01T07:06:58;8.57;;;7.63;;
60935;SDS011;46804;51.786;19.520;2022-07-01T07:10:59;9.77;;;8.15;;
60935;SDS011;46804;51.786;19.520;2022-07-01T07:15:00;13.15;;;8.20;;
60935;SDS011;46804;51.786;19.520;2022-07-01T07:19:00;11.40;;;8.00;;
60935;SDS011;46804;51.786;19.520;2022-07-01T07:23:01;13.80;;;7.82;;
60935;SDS011;46804;51.786;19.520;2022-07-01T07:27:02;10.73;;;7.72;;
60935;SDS011;46804;51.786;19.520;2022-07-01T07:31:03;15.18;;;7.43;;
60935;SDS011;46804;51.786;19.520;2022-07-01T07:35:04;12.77;;;7.72;;
60935;SDS011;46804;51.786;19.520;2022-07-01T07:39:05;14.88;;;8.15;;
60935;SDS011;46804;51.786;19.520;2022-07-01T07:43:05;9.48;;;7.35;;
60935;SDS011;46804;51.786;19.520;2022-07-01T07:47:07;12.48;;;8.13;;
60935;SDS011;46804;51.786;19.520;2022-07-01T07:51:07;10.52;;;7.97;;
60935;SDS011;46804;51.786;19.520;2022-07-01T07:55:09;14.75;;;8.18;;
60935;SDS011;46804;51.786;19.520;2022-07-01T07:59:10;9.93;;;7.43;;
60935;SDS011;46804;51.786;19.520;2022-07-01T08:03:10;21.70;;;8.00;;
60935;SDS011;46804;51.786;19.520;2022-07-01T08:07:11;10.13;;;7.90;;
60935;SDS011;46804;51.786;19.520;2022-07-01T08:11:11;12.57;;;7.60;;
60935;SDS011;46804;51.786;19.520;2022-07-01T08:15:12;10.60;;;8.43;;
60935;SDS011;46804;51.786;19.520;2022-07-01T08:19:12;12.18;;;7.32;;
60935;SDS011;46804;51.786;19.520;2022-07-01T08:23:13;10.30;;;7.82;;
60935;SDS011;46804;51.786;19.520;2022-07-01T08:27:14;10.77;;;7.82;;
60935;SDS011;46804;51.786;19.520;2022-07-01T08:31:15;16.77;;;8.38;;
60935;SDS011;46804;51.786;19.520;2022-07-01T08:35:15;10.70;;;7.65;;
60935;SDS011;46804;51.786;19.520;2022-07-01T08:39:16;9.40;;;7.50;;
60935;SDS011;46804;51.786;19.520;2022-07-01T08:43:16;12.55;;;7.95;;
60935;SDS011;46804;51.786;19.520;2022-07-01T08:47:17;11.25;;;7.82;;
60935;SDS011;46804;51.786;19.520;2022-07-01T08:51:17;11.07;;;7.88;;
60935;SDS011;46804;51.786;19.520;2022-07-01T08:55:18;11.95;;;7.72;;
60935;SDS011;46804;51.786;19.520;2022-07-01T08:59:24;10.98;;;7.40;;
60935;SDS011;46804;51.786;19.520;2022-07-01T09:03:26;12.70;;;7.35;;
60935;SDS011;46804;51.786;19.520;2022-07-01T09:07:30;13.82;;;8.15;;
60935;SDS011;46804;51.786;19.520;2022-07-01T09:11:33;10.43;;;7.57;;
60935;SDS011;46804;51.786;19.520;2022-07-01T09:15:34;12.95;;;7.80;;
60935;SDS011;46804;51.786;19.520;2022-07-01T09:19:36;13.73;;;7.22;;
60935;SDS011;46804;51.786;19.520;2022-07-01T09:23:37;11.43;;;7.18;;
60935;SDS011;46804;51.786;19.520;2022-07-01T09:27:39;9.77;;;7.13;;
60935;SDS011;46804;51.786;19.520;2022-07-01T09:31:40;10.18;;;7.60;;
60935;SDS011;46804;51.786;19.520;2022-07-01T09:35:48;11.88;;;7.40;;
60935;SDS011;46804;51.786;19.520;2022-07-01T09:39:54;9.60;;;7.20;;
60935;SDS011;46804;51.786;19.520;2022-07-01T09:43:55;9.27;;;7.00;;
60935;SDS011;46804;51.786;19.520;2022-07-01T09:48:04;11.82;;;7.32;;
60935;SDS011;46804;51.786;19.520;2022-07-01T09:52:05;10.07;;;7.10;;
60935;SDS011;46804;51.786;19.520;2022-07-01T09:56:05;8.90;;;6.95;;
60935;SDS011;46804;51.786;19.520;2022-07-01T10:00:06;10.32;;;6.70;;
60935;SDS011;46804;51.786;19.520;2022-07-01T10:04:07;11.07;;;7.00;;
60935;SDS011;46804;51.786;19.520;2022-07-01T10:12:29;14.38;;;6.30;;
60935;SDS011;46804;51.786;19.520;2022-07-01T10:16:33;8.00;;;5.95;;
60935;SDS011;46804;51.786;19.520;2022-07-01T10:20:36;11.07;;;6.78;;
60935;SDS011;46804;51.786;19.520;2022-07-01T10:24:37;12.00;;;6.70;;
60935;SDS011;46804;51.786;19.520;2022-07-01T10:28:40;10.07;;;6.40;;
60935;SDS011;46804;51.786;19.520;2022-07-01T10:32:48;9.00;;;6.05;;
60935;SDS011;46804;51.786;19.520;2022-07-01T10:37:10;11.05;;;6.15;;
60935;SDS011;46804;51.786;19.520;2022-07-01T10:41:21;8.30;;;5.97;;
60935;SDS011;46804;51.786;19.520;2022-07-01T10:45:23;6.68;;;5.93;;
60935;SDS011;46804;51.786;19.520;2022-07-01T10:53:46;12.70;;;6.28;;
60935;SDS011;46804;51.786;19.520;2022-07-01T10:57:47;10.10;;;5.85;;
60935;SDS011;46804;51.786;19.520;2022-07-01T11:01:54;9.52;;;5.78;;
60935;SDS011;46804;51.786;19.520;2022-07-01T11:05:55;12.43;;;6.00;;
60935;SDS011;46804;51.786;19.520;2022-07-01T11:09:56;8.57;;;6.07;;
60935;SDS011;46804;51.786;19.520;2022-07-01T11:13:58;8.98;;;6.30;;
60935;SDS011;46804;51.786;19.520;2022-07-01T11:18:00;9.70;;;5.82;;
60935;SDS011;46804;51.786;19.520;2022-07-01T11:22:02;7.53;;;5.78;;
60935;SDS011;46804;51.786;19.520;2022-07-01T11:26:03;7.15;;;5.45;;
60935;SDS011;46804;51.786;19.520;2022-07-01T11:30:05;8.13;;;5.40;;
60935;SDS011;46804;51.786;19.520;2022-07-01T11:34:07;10.85;;;5.70;;
60935;SDS011;46804;51.786;19.520;2022-07-01T11:38:12;15.20;;;6.23;;
60935;SDS011;46804;51.786;19.520;2022-07-01T11:42:32;9.38;;;5.50;;
60935;SDS011;46804;51.786;19.520;2022-07-01T11:46:33;6.60;;;5.07;;
60935;SDS011;46804;51.786;19.520;2022-07-01T11:50:34;8.00;;;5.70;;
60935;SDS011;46804;51.786;19.520;2022-07-01T11:54:41;7.20;;;5.43;;
60935;SDS011;46804;51.786;19.520;2022-07-01T11:58:48;8.25;;;5.55;;
60935;SDS011;46804;51.786;19.520;2022-07-01T12:02:50;8.73;;;5.85;;
60935;SDS011;46804;51.786;19.520;2022-07-01T12:06:51;7.88;;;5.43;;
60935;SDS011;46804;51.786;19.520;2022-07-01T12:10:51;8.97;;;5.23;;
60935;SDS011;46804;51.786;19.520;2022-07-01T12:14:53;6.80;;;4.67;;
60935;SDS011;46804;51.786;19.520;2022-07-01T12:18:58;6.90;;;5.50;;
60935;SDS011;46804;51.786;19.520;2022-07-01T12:23:11;11.43;;;5.60;;
60935;SDS011;46804;51.786;19.520;2022-07-01T12:27:12;8.40;;;5.72;;
60935;SDS011;46804;51.786;19.520;2022-07-01T12:31:14;10.88;;;5.80;;
60935;SDS011;46804;51.786;19.520;2022-07-01T12:35:22;9.43;;;5.33;;
60935;SDS011;46804;51.786;19.520;2022-07-01T12:43:48;7.37;;;5.80;;
60935;SDS011;46804;51.786;19.520;2022-07-01T12:47:49;7.30;;;5.87;;
60935;SDS011;46804;51.786;19.520;2022-07-01T12:51:51;9.68;;;5.20;;
60935;SDS011;46804;51.786;19.520;2022-07-01T12:59:54;7.18;;;5.50;;
60935;SDS011;46804;51.786;19.520;2022-07-01T13:03:55;6.77;;;5.53;;
60935;SDS011;46804;51.786;19.520;2022-07-01T13:07:55;13.27;;;6.17;;
60935;SDS011;46804;51.786;19.520;2022-07-01T13:11:56;8.17;;;5.30;;
60935;SDS011;46804;51.786;19.520;2022-07-01T13:15:57;7.37;;;5.77;;
60935;SDS011;46804;51.786;19.520;2022-07-01T13:19:57;6.57;;;5.37;;
60935;SDS011;46804;51.786;19.520;2022-07-01T13:23:58;6.17;;;5.23;;
60935;SDS011;46804;51.786;19.520;2022-07-01T13:27:58;10.20;;;5.60;;
60935;SDS011;46804;51.786;19.520;2022-07-01T13:31:59;10.10;;;5.50;;
60935;SDS011;46804;51.786;19.520;2022-07-01T13:36:00;10.30;;;5.60;;
60935;SDS011;46804;51.786;19.520;2022-07-01T13:40:00;10.27;;;6.57;;
60935;SDS011;46804;51.786;19.520;2022-07-01T13:44:01;9.27;;;5.20;;
60935;SDS011;46804;51.786;19.520;2022-07-01T13:48:01;8.73;;;5.70;;
60935;SDS011;46804;51.786;19.520;2022-07-01T13:52:02;7.53;;;5.13;;
60935;SDS011;46804;51.786;19.520;2022-07-01T13:56:03;8.63;;;5.50;;
60935;SDS011;46804;51.786;19.520;2022-07-01T14:00:04;8.53;;;5.20;;
60935;SDS011;46804;51.786;19.520;2022-07-01T14:04:05;13.43;;;6.33;;
60935;SDS011;46804;51.786;19.520;2022-07-01T14:08:06;7.97;;;5.73;;
60935;SDS011;46804;51.786;19.520;2022-07-01T14:12:07;7.63;;;5.75;;
60935;SDS011;46804;51.786;19.520;2022-07-01T14:16:07;8.80;;;5.70;;
60935;SDS011;46804;51.786;19.520;2022-07-01T14:20:08;13.20;;;5.85;;
60935;SDS011;46804;51.786;19.520;2022-07-01T14:24:10;8.50;;;6.10;;
60935;SDS011;46804;51.786;19.520;2022-07-01T14:28:10;9.77;;;6.07;;
60935;SDS011;46804;51.786;19.520;2022-07-01T14:32:12;7.45;;;5.78;;
60935;SDS011;46804;51.786;19.520;2022-07-01T14:36:12;10.27;;;6.03;;
60935;SDS011;46804;51.786;19.520;2022-07-01T14:40:13;11.03;;;6.00;;
60935;SDS011;46804;51.786;19.520;2022-07-01T14:44:13;7.60;;;5.50;;
60935;SDS011;46804;51.786;19.520;2022-07-01T14:48:14;7.85;;;5.25;;
60935;SDS011;46804;51.786;19.520;2022-07-01T14:52:15;7.18;;;5.05;;
60935;SDS011;46804;51.786;19.520;2022-07-01T14:56:17;10.13;;;5.63;;
60935;SDS011;46804;51.786;19.520;2022-07-01T15:00:18;8.63;;;6.03;;
60935;SDS011;46804;51.786;19.520;2022-07-01T15:04:18;7.95;;;5.90;;
60935;SDS011;46804;51.786;19.520;2022-07-01T15:08:19;8.35;;;6.13;;
60935;SDS011;46804;51.786;19.520;2022-07-01T15:12:19;8.45;;;6.50;;
60935;SDS011;46804;51.786;19.520;2022-07-01T15:16:20;7.78;;;5.80;;
60935;SDS011;46804;51.786;19.520;2022-07-01T15:20:21;8.82;;;6.40;;
60935;SDS011;46804;51.786;19.520;2022-07-01T15:24:22;11.38;;;6.28;;
60935;SDS011;46804;51.786;19.520;2022-07-01T15:28:23;10.57;;;7.07;;
60935;SDS011;46804;51.786;19.520;2022-07-01T15:32:24;10.27;;;5.93;;
60935;SDS011;46804;51.786;19.520;2022-07-01T15:36:25;10.75;;;6.20;;
60935;SDS011;46804;51.786;19.520;2022-07-01T15:40:25;11.05;;;6.32;;
60935;SDS011;46804;51.786;19.520;2022-07-01T15:44:26;9.38;;;6.32;;
60935;SDS011;46804;51.786;19.520;2022-07-01T15:48:26;12.98;;;6.20;;
60935;SDS011;46804;51.786;19.520;2022-07-01T15:52:27;11.52;;;6.45;;
60935;SDS011;46804;51.786;19.520;2022-07-01T15:56:28;8.30;;;6.10;;
60935;SDS011;46804;51.786;19.520;2022-07-01T16:00:29;10.13;;;6.20;;
60935;SDS011;46804;51.786;19.520;2022-07-01T16:04:34;14.23;;;6.70;;
60935;SDS011;46804;51.786;19.520;2022-07-01T16:08:37;8.35;;;6.28;;
60935;SDS011;46804;51.786;19.520;2022-07-01T16:12:40;6.95;;;5.72;;
60935;SDS011;46804;51.786;19.520;2022-07-01T16:16:44;14.30;;;6.32;;
60935;SDS011;46804;51.786;19.520;2022-07-01T16:20:46;8.30;;;6.05;;
60935;SDS011;46804;51.786;19.520;2022-07-01T16:24:48;9.00;;;6.28;;
60935;SDS011;46804;51.786;19.520;2022-07-01T16:28:50;7.57;;;6.05;;
60935;SDS011;46804;51.786;19.520;2022-07-01T16:32:52;9.50;;;6.22;;
60935;SDS011;46804;51.786;19.520;2022-07-01T16:36:53;8.85;;;6.55;;
60935;SDS011;46804;51.786;19.520;2022-07-01T16:41:02;10.55;;;6.60;;
60935;SDS011;46804;51.786;19.520;2022-07-01T16:45:05;11.32;;;6.97;;
60935;SDS011;46804;51.786;19.520;2022-07-01T16:53:26;21.05;;;7.85;;
60935;SDS011;46804;51.786;19.520;2022-07-01T16:57:35;18.67;;;8.15;;
60935;SDS011;46804;51.786;19.520;2022-07-01T17:01:38;15.98;;;8.27;;
60935;SDS011;46804;51.786;19.520;2022-07-01T17:05:39;11.18;;;7.68;;
60935;SDS011;46804;51.786;19.520;2022-07-01T17:09:41;8.68;;;7.40;;
60935;SDS011;46804;51.786;19.520;2022-07-01T17:13:47;19.38;;;8.02;;
60935;SDS011;46804;51.786;19.520;2022-07-01T17:17:48;14.88;;;8.60;;
60935;SDS011;46804;51.786;19.520;2022-07-01T17:21:49;10.52;;;7.75;;
60935;SDS011;46804;51.786;19.520;2022-07-01T17:25:56;11.75;;;7.40;;
60935;SDS011;46804;51.786;19.520;2022-07-01T17:30:04;12.20;;;8.32;;
60935;SDS011;46804;51.786;19.520;2022-07-01T17:34:05;11.70;;;7.75;;
60935;SDS011;46804;51.786;19.520;2022-07-01T17:38:11;14.43;;;8.20;;
60935;SDS011;46804;51.786;19.520;2022-07-01T17:42:13;10.98;;;7.93;;
60935;SDS011;46804;51.786;19.520;2022-07-01T17:46:14;13.07;;;8.32;;
60935;SDS011;46804;51.786;19.520;2022-07-01T17:50:17;12.18;;;8.20;;
60935;SDS011;46804;51.786;19.520;2022-07-01T17:54:19;9.20;;;7.45;;
60935;SDS011;46804;51.786;19.520;2022-07-01T17:58:21;11.90;;;7.75;;
60935;SDS011;46804;51.786;19.520;2022-07-01T18:02:23;12.45;;;7.88;;
60935;SDS011;46804;51.786;19.520;2022-07-01T18:06:23;10.38;;;7.38;;
60935;SDS011;46804;51.786;19.520;2022-07-01T18:10:28;10.80;;;8.23;;
60935;SDS011;46804;51.786;19.520;2022-07-01T18:14:41;12.00;;;7.85;;
60935;SDS011;46804;51.786;19.520;2022-07-01T18:18:50;10.55;;;7.80;;
60935;SDS011;46804;51.786;19.520;2022-07-01T18:27:16;13.18;;;8.25;;
60935;SDS011;46804;51.786;19.520;2022-07-01T18:31:19;11.32;;;7.43;;
60935;SDS011;46804;51.786;19.520;2022-07-01T18:35:31;10.35;;;7.47;;
60935;SDS011;46804;51.786;19.520;2022-07-01T18:39:32;10.75;;;7.75;;
60935;SDS011;46804;51.786;19.520;2022-07-01T18:43:33;12.95;;;7.75;;
60935;SDS011;46804;51.786;19.520;2022-07-01T18:47:34;11.02;;;7.90;;
60935;SDS011;46804;51.786;19.520;2022-07-01T18:51:36;13.10;;;8.27;;
60935;SDS011;46804;51.786;19.520;2022-07-01T18:55:36;11.23;;;8.10;;
60935;SDS011;46804;51.786;19.520;2022-07-01T18:59:37;9.20;;;7.90;;
60935;SDS011;46804;51.786;19.520;2022-07-01T19:03:37;13.00;;;7.97;;
60935;SDS011;46804;51.786;19.520;2022-07-01T19:07:38;10.98;;;7.80;;
60935;SDS011;46804;51.786;19.520;2022-07-01T19:11:39;14.82;;;8.73;;
60935;SDS011;46804;51.786;19.520;2022-07-01T19:15:40;13.82;;;9.40;;
60935;SDS011;46804;51.786;19.520;2022-07-01T19:19:40;16.00;;;9.65;;
60935;SDS011;46804;51.786;19.520;2022-07-01T19:23:41;15.75;;;10.68;;
60935;SDS011;46804;51.786;19.520;2022-07-01T19:27:41;14.93;;;10.55;;
60935;SDS011;46804;51.786;19.520;2022-07-01T19:31:42;15.73;;;11.00;;
60935;SDS011;46804;51.786;19.520;2022-07-01T19:35:43;14.60;;;11.95;;
60935;SDS011;46804;51.786;19.520;2022-07-01T19:39:44;17.20;;;11.70;;
60935;SDS011;46804;51.786;19.520;2022-07-01T19:43:45;16.58;;;11.77;;
60935;SDS011;46804;51.786;19.520;2022-07-01T19:47:46;15.88;;;11.18;;
60935;SDS011;46804;51.786;19.520;2022-07-01T19:51:46;16.02;;;10.57;;
60935;SDS011;46804;51.786;19.520;2022-07-01T19:55:47;13.88;;;10.68;;
60935;SDS011;46804;51.786;19.520;2022-07-01T19:59:47;12.95;;;9.30;;
60935;SDS011;46804;51.786;19.520;2022-07-01T20:03:48;13.07;;;9.05;;
60935;SDS011;46804;51.786;19.520;2022-07-01T20:07:49;11.88;;;8.77;;
60935;SDS011;46804;51.786;19.520;2022-07-01T20:11:49;11.07;;;8.18;;
60935;SDS011;46804;51.786;19.520;2022-07-01T20:15:50;12.98;;;8.15;;
60935;SDS011;46804;51.786;19.520;2022-07-01T20:19:51;10.23;;;8.30;;
60935;SDS011;46804;51.786;19.520;2022-07-01T20:23:51;16.23;;;8.77;;
60935;SDS011;46804;51.786;19.520;2022-07-01T20:27:52;12.20;;;8.48;;
60935;SDS011;46804;51.786;19.520;2022-07-01T20:31:53;12.30;;;7.95;;
60935;SDS011;46804;51.786;19.520;2022-07-01T20:35:53;9.68;;;7.97;;
60935;SDS011;46804;51.786;19.520;2022-07-01T20:39:54;11.75;;;7.85;;
60935;SDS011;46804;51.786;19.520;2022-07-01T20:43:55;7.97;;;7.07;;
60935;SDS011;46804;51.786;19.520;2022-07-01T20:47:55;10.75;;;7.97;;
60935;SDS011;46804;51.786;19.520;2022-07-01T20:51:57;10.80;;;7.88;;
60935;SDS011;46804;51.786;19.520;2022-07-01T20:55:57;11.05;;;7.55;;
60935;SDS011;46804;51.786;19.520;2022-07-01T20:59:58;13.40;;;8.48;;
60935;SDS011;46804;51.786;19.520;2022-07-01T21:03:59;11.85;;;8.57;;
60935;SDS011;46804;51.786;19.520;2022-07-01T21:08:00;12.73;;;7.72;;
60935;SDS011;46804;51.786;19.520;2022-07-01T21:12:01;10.82;;;7.97;;
60935;SDS011;46804;51.786;19.520;2022-07-01T21:16:02;10.35;;;7.90;;
60935;SDS011;46804;51.786;19.520;2022-07-01T21:20:03;9.55;;;8.15;;
60935;SDS011;46804;51.786;19.520;2022-07-01T21:24:05;10.00;;;8.27;;
60935;SDS011;46804;51.786;19.520;2022-07-01T21:28:05;11.35;;;8.23;;
60935;SDS011;46804;51.786;19.520;2022-07-01T21:32:06;15.55;;;8.07;;
60935;SDS011;46804;51.786;19.520;2022-07-01T21:36:06;13.13;;;8.02;;
60935;SDS011;46804;51.786;19.520;2022-07-01T21:40:07;9.48;;;7.68;;
60935;SDS011;46804;51.786;19.520;2022-07-01T21:44:09;10.38;;;7.80;;
60935;SDS011;46804;51.786;19.520;2022-07-01T21:48:12;10.18;;;8.07;;
60935;SDS011;46804;51.786;19.520;2022-07-01T21:52:15;9.88;;;7.45;;
60935;SDS011;46804;51.786;19.520;2022-07-01T21:56:18;10.38;;;7.95;;
60935;SDS011;46804;51.786;19.520;2022-07-01T22:00:21;11.70;;;7.47;;
60935;SDS011;46804;51.786;19.520;2022-07-01T22:04:23;10.82;;;6.85;;
60935;SDS011;46804;51.786;19.520;2022-07-01T22:08:24;9.43;;;6.35;;
60935;SDS011;46804;51.786;19.520;2022-07-01T22:12:25;10.15;;;6.65;;
60935;SDS011;46804;51.786;19.520;2022-07-01T22:16:29;9.63;;;6.80;;
60935;SDS011;46804;51.786;19.520;2022-07-01T22:24:33;11.07;;;6.72;;
60935;SDS011;46804;51.786;19.520;2022-07-01T22:28:37;9.73;;;6.57;;
60935;SDS011;46804;51.786;19.520;2022-07-01T22:32:37;8.35;;;5.45;;
60935;SDS011;46804;51.786;19.520;2022-07-01T22:36:38;7.97;;;4.97;;
60935;SDS011;46804;51.786;19.520;2022-07-01T22:40:39;6.90;;;4.28;;
60935;SDS011;46804;51.786;19.520;2022-07-01T22:48:57;6.10;;;4.25;;
60935;SDS011;46804;51.786;19.520;2022-07-01T22:53:30;6.33;;;4.43;;
60935;SDS011;46804;51.786;19.520;2022-07-01T23:01:55;7.18;;;4.43;;
60935;SDS011;46804;51.786;19.520;2022-07-01T23:05:56;6.82;;;4.13;;
60935;SDS011;46804;51.786;19.520;2022-07-01T23:10:08;6.05;;;4.50;;
60935;SDS011;46804;51.786;19.520;2022-07-01T23:14:24;5.93;;;4.25;;
60935;SDS011;46804;51.786;19.520;2022-07-01T23:18:44;8.60;;;4.07;;
60935;SDS011;46804;51.786;19.520;2022-07-01T23:22:49;6.85;;;4.53;;
60935;SDS011;46804;51.786;19.520;2022-07-01T23:26:53;8.65;;;4.75;;
60935;SDS011;46804;51.786;19.520;2022-07-01T23:30:55;7.07;;;5.05;;
60935;SDS011;46804;51.786;19.520;2022-07-01T23:34:57;7.53;;;5.07;;
60935;SDS011;46804;51.786;19.520;2022-07-01T23:38:58;7.50;;;5.13;;
60935;SDS011;46804;51.786;19.520;2022-07-01T23:43:00;8.00;;;4.93;;
60935;SDS011;46804;51.786;19.520;2022-07-01T23:47:00;7.93;;;4.90;;
60935;SDS011;46804;51.786;19.520;2022-07-01T23:51:01;6.97;;;5.40;;
60935;SDS011;46804;51.786;19.520;2022-07-01T23:55:02;7.28;;;4.63;;
60935;SDS011;46804;51.786;19.520;2022-07-01T23:59:03;7.80;;;5.70;;
